Grace Chapel, North Carolina
Current Conditions -  °F | °C
As of 7:53 AM on Saturday 20 Dec 2014 (Local Time) from KHKY Reporting Station
Overcast Overcast  
Wind Chill: 39°   Ceiling: 4700
Heat Index: 39°   Visibility: 10mi
Dew Point: 31°   Wind: 0mph
Humidity: 73%   Direction: NA
Pressure: 30.23"   Gusts: NA
Location:  35.83°N, 81.4147°W
Report Text: KHKY 201253Z AUTO 00000KT 10SM FEW032 OVC047 04/M01 A3023 RMK AO2 RAB25E38 SLP229 P0000 T00391006
Loading
Personal Weather Stations






























Interactive Weather Map New forecast layout! Learn more

10-Day Weather Forecast

Advertisements
Track Severe Weather on mobile